Time;durP1;ratioP1;P1;durP2;ratioP2;P2;SDS_P1;SDS_P2;PMS_P1;PMS_P2;Temp;Humidity;BMP_temperature;BMP_pressure;BME280_temperature;BME280_humidity;BME280_pressure;Samples;Min_cycle;Max_cycle;Signal;HPM_P1;HPM_P2
2022/03/30 00:00:49;;;;;;;12.80;2.80;;;;;;;0.13;89.73;98839.61;105009;1271;73400;-68
2022/03/30 00:03:38;;;;;;;11.80;2.90;;;;;;;0.08;89.61;98839.04;104876;1271;67546;-68
2022/03/30 00:06:27;;;;;;;10.00;2.50;;;;;;;0.03;89.67;98840.67;104998;1271;72896;-68
2022/03/30 00:09:16;;;;;;;10.10;2.20;;;;;;;-0.02;89.54;98842.31;104881;1271;59771;-68
2022/03/30 00:12:05;;;;;;;11.20;2.40;;;;;;;-0.05;89.51;98837.77;104880;1272;59617;-69
2022/03/30 00:14:54;;;;;;;8.20;2.40;;;;;;;-0.05;89.62;98840.05;104890;1271;73778;-70
2022/03/30 00:17:45;;;;;;;10.70;2.30;;;;;;;-0.06;89.21;98835.92;104857;1271;67148;-70
2022/03/30 00:20:36;;;;;;;10.50;2.60;;;;;;;-0.08;89.30;98830.60;105124;1271;72942;-70
2022/03/30 00:23:24;;;;;;;7.40;2.00;;;;;;;-0.09;89.17;98835.57;104870;1274;59699;-70
2022/03/30 00:26:14;;;;;;;9.80;2.50;;;;;;;-0.09;89.14;98834.01;104855;1272;59616;-70
2022/03/30 00:29:04;;;;;;;9.30;2.40;;;;;;;-0.08;89.10;98837.42;104969;1271;72385;-70
2022/03/30 00:31:53;;;;;;;9.70;2.30;;;;;;;-0.06;88.88;98835.73;104819;1271;66870;-70
2022/03/30 00:34:43;;;;;;;8.50;1.90;;;;;;;-0.05;88.76;98837.59;105062;1271;73370;-70
2022/03/30 00:37:31;;;;;;;14.40;2.80;;;;;;;-0.02;88.97;98841.30;105005;1272;59727;-68
2022/03/30 00:40:22;;;;;;;11.00;2.20;;;;;;;-0.01;88.77;98837.37;105054;1272;60717;-68
2022/03/30 00:43:12;;;;;;;8.30;2.00;;;;;;;0.03;88.75;98840.16;104860;1271;73778;-69
2022/03/30 00:46:02;;;;;;;8.00;2.00;;;;;;;0.06;88.46;98842.46;105219;1272;68199;-69
2022/03/30 00:48:50;;;;;;;10.70;2.10;;;;;;;0.10;88.24;98845.53;105175;1271;71510;-69
2022/03/30 00:51:40;;;;;;;7.50;2.10;;;;;;;0.13;88.04;98849.70;104817;1271;59686;-68
2022/03/30 00:54:29;;;;;;;8.10;2.40;;;;;;;0.18;88.02;98851.56;105190;1274;59845;-69
2022/03/30 00:57:22;;;;;;;7.60;2.00;;;;;;;0.21;87.79;98851.95;105121;1273;73643;-68
2022/03/30 01:00:15;;;;;;;8.90;2.00;;;;;;;0.24;87.75;98844.46;104909;1271;68127;-69
2022/03/30 01:03:04;;;;;;;7.90;2.00;;;;;;;0.26;87.63;98840.14;104816;1271;71944;-69
2022/03/30 01:05:54;;;;;;;7.40;1.80;;;;;;;0.30;87.60;98834.32;104805;1271;59592;-70
2022/03/30 01:08:43;;;;;;;9.20;2.20;;;;;;;0.33;87.51;98830.14;105004;1272;60673;-69
2022/03/30 01:11:32;;;;;;;8.60;1.80;;;;;;;0.34;87.08;98824.83;105000;1271;72359;-70
2022/03/30 01:14:23;;;;;;;9.70;2.10;;;;;;;0.35;87.01;98827.77;104859;1271;65734;-69
2022/03/30 01:17:15;;;;;;;7.40;2.10;;;;;;;0.33;86.88;98823.66;104909;1271;71481;-69
2022/03/30 01:20:10;;;;;;;9.10;2.20;;;;;;;0.30;86.77;98816.53;104793;1271;59763;-69
2022/03/30 01:23:02;;;;;;;8.70;2.50;;;;;;;0.25;86.85;98814.33;105170;1271;60714;-69
2022/03/30 01:25:52;;;;;;;10.10;2.40;;;;;;;0.23;86.83;98813.60;105227;1271;72284;-69
2022/03/30 01:28:44;;;;;;;10.50;2.20;;;;;;;0.22;86.84;98817.70;105094;1271;68679;-69
2022/03/30 01:34:45;;;;;;;7.40;2.10;;;;;;;0.28;86.86;98815.10;104878;1271;59730;-69
2022/03/30 01:37:34;;;;;;;11.60;1.70;;;;;;;0.28;86.60;98807.57;104796;1271;60905;-69
2022/03/30 01:40:25;;;;;;;9.40;1.90;;;;;;;0.31;86.57;98805.33;104788;1271;73080;-69
2022/03/30 01:43:14;;;;;;;8.90;2.00;;;;;;;0.33;86.50;98803.64;104885;1272;68830;-69
2022/03/30 01:46:03;;;;;;;8.60;1.90;;;;;;;0.33;86.79;98799.95;105031;1271;72741;-69
2022/03/30 01:48:53;;;;;;;10.20;2.10;;;;;;;0.34;86.49;98799.56;105112;1271;59743;-69
2022/03/30 01:51:42;;;;;;;11.00;2.30;;;;;;;0.33;86.42;98792.96;104866;1271;59595;-69
2022/03/30 01:54:41;;;;;;;10.10;2.60;;;;;;;0.29;86.42;98789.73;105312;1271;72171;-69
2022/03/30 01:57:30;;;;;;;11.50;2.60;;;;;;;0.23;86.57;98784.11;105201;1271;67874;-69
2022/03/30 02:00:24;;;;;;;8.80;2.60;;;;;;;0.19;86.93;98782.05;104928;1271;71559;-69
2022/03/30 02:03:13;;;;;;;9.80;2.50;;;;;;;0.18;87.29;98774.83;104998;1271;59708;-69
2022/03/30 02:06:02;;;;;;;7.90;2.60;;;;;;;0.15;87.24;98771.64;104813;1271;59659;-69
2022/03/30 02:08:51;;;;;;;8.70;2.50;;;;;;;0.16;87.61;98778.02;104791;1271;73905;-69
2022/03/30 02:11:40;;;;;;;9.30;2.70;;;;;;;0.16;87.71;98773.49;105096;1271;68600;-69
2022/03/30 02:14:28;;;;;;;9.30;2.80;;;;;;;0.17;87.86;98770.14;105052;1272;72267;-69
2022/03/30 02:17:18;;;;;;;10.90;2.70;;;;;;;0.20;87.94;98765.27;105050;1271;59750;-69
2022/03/30 02:20:11;;;;;;;9.50;3.00;;;;;;;0.21;87.86;98764.15;104887;1272;60255;-69
2022/03/30 02:22:59;;;;;;;9.80;2.80;;;;;;;0.22;87.80;98758.54;104827;1271;74074;-69
2022/03/30 02:25:51;;;;;;;13.50;3.20;;;;;;;0.22;88.12;98756.80;104900;1272;67924;-69
2022/03/30 02:28:41;;;;;;;9.10;2.50;;;;;;;0.21;88.19;98755.27;104853;1271;72971;-69
2022/03/30 02:31:34;;;;;;;8.60;2.70;;;;;;;0.21;88.36;98751.95;104871;1271;59718;-70
2022/03/30 02:34:23;;;;;;;11.30;3.10;;;;;;;0.20;88.18;98758.29;104857;1271;59631;-70
2022/03/30 02:37:15;;;;;;;9.60;3.00;;;;;;;0.22;88.30;98757.14;105093;1271;73129;-70
2022/03/30 02:40:07;;;;;;;12.00;3.00;;;;;;;0.22;88.12;98756.06;104863;1271;67122;-70
2022/03/30 02:42:55;;;;;;;10.20;3.30;;;;;;;0.25;88.18;98756.43;104860;1271;71825;-70
2022/03/30 02:45:44;;;;;;;11.70;2.40;;;;;;;0.28;88.05;98754.35;104869;1272;59897;-70
2022/03/30 02:48:37;;;;;;;11.10;3.00;;;;;;;0.29;88.01;98754.63;104884;1272;59781;-70
2022/03/30 02:51:27;;;;;;;9.60;2.90;;;;;;;0.36;88.04;98759.66;105104;1271;73375;-69
2022/03/30 02:54:16;;;;;;;10.70;3.80;;;;;;;0.42;88.14;98761.80;104913;1273;67084;-70
2022/03/30 02:57:05;;;;;;;9.90;2.90;;;;;;;0.45;88.26;98765.60;104101;1272;1003195;-69
2022/03/30 02:59:54;;;;;;;10.30;3.30;;;;;;;0.46;88.58;98764.19;104793;1271;59694;-68
2022/03/30 03:02:43;;;;;;;9.20;3.20;;;;;;;0.45;88.67;98763.50;105156;1274;61117;-68
2022/03/30 03:05:32;;;;;;;8.40;2.90;;;;;;;0.43;88.71;98760.47;104064;1271;1002542;-68
2022/03/30 03:08:20;;;;;;;11.00;4.10;;;;;;;0.42;88.87;98768.95;104825;1272;67245;-68
2022/03/30 03:11:10;;;;;;;11.60;4.40;;;;;;;0.42;89.14;98772.95;104121;1272;1002580;-68
2022/03/30 03:14:05;;;;;;;12.10;4.50;;;;;;;0.40;89.20;98773.57;104870;1271;59638;-68
2022/03/30 03:16:53;;;;;;;12.10;5.40;;;;;;;0.37;89.07;98770.44;104805;1272;60365;-68
2022/03/30 03:19:44;;;;;;;13.40;5.30;;;;;;;0.40;89.44;98769.42;104860;1272;73919;-68
2022/03/30 03:22:32;;;;;;;13.40;5.20;;;;;;;0.43;89.36;98770.80;104894;1271;67140;-68
2022/03/30 03:25:32;;;;;;;12.30;4.80;;;;;;;0.46;89.57;98774.63;104829;1271;73280;-68
2022/03/30 03:28:24;;;;;;;12.90;4.40;;;;;;;0.49;89.61;98780.75;104943;1271;59804;-69
2022/03/30 03:31:15;;;;;;;9.60;4.30;;;;;;;0.50;89.55;98782.07;104845;1271;59663;-69
2022/03/30 03:34:04;;;;;;;11.10;4.40;;;;;;;0.53;89.86;98785.76;104799;1271;73481;-69
2022/03/30 03:36:52;;;;;;;11.10;4.60;;;;;;;0.55;89.91;98789.33;104942;1273;66103;-69
2022/03/30 03:39:43;;;;;;;11.50;4.50;;;;;;;0.57;90.04;98788.34;104207;1271;1003088;-69
2022/03/30 03:42:33;;;;;;;13.60;5.60;;;;;;;0.57;90.08;98784.80;104887;1271;59747;-69
2022/03/30 03:45:23;;;;;;;12.40;4.90;;;;;;;0.59;89.99;98782.64;105001;1271;59643;-69
2022/03/30 03:48:11;;;;;;;11.20;5.00;;;;;;;0.62;90.14;98780.86;104990;1271;71468;-70
2022/03/30 03:51:00;;;;;;;11.10;5.00;;;;;;;0.65;90.03;98779.17;104891;1272;66236;-70
2022/03/30 03:53:48;;;;;;;12.60;4.70;;;;;;;0.66;89.74;98781.31;105226;1271;72597;-71
2022/03/30 03:56:37;;;;;;;10.80;4.30;;;;;;;0.67;89.41;98778.69;104919;1271;59723;-70
2022/03/30 03:59:26;;;;;;;9.90;4.30;;;;;;;0.66;89.18;98780.48;105008;1271;60599;-71
2022/03/30 04:02:14;;;;;;;12.00;4.20;;;;;;;0.66;89.38;98783.80;105340;1272;73516;-70
2022/03/30 04:05:03;;;;;;;10.90;4.70;;;;;;;0.65;89.28;98786.09;104973;1271;68152;-70
2022/03/30 04:07:55;;;;;;;10.60;4.10;;;;;;;0.63;89.33;98785.36;105778;1271;73180;-71
2022/03/30 04:10:45;;;;;;;13.40;4.80;;;;;;;0.56;89.71;98787.36;105194;1271;59701;-70
2022/03/30 04:13:37;;;;;;;13.30;4.70;;;;;;;0.46;90.20;98795.39;105266;1271;59743;-70
2022/03/30 04:16:26;;;;;;;13.60;4.50;;;;;;;0.38;91.46;98799.85;105208;1271;72345;-70
2022/03/30 04:19:18;;;;;;;15.40;4.70;;;;;;;0.28;91.31;98809.98;105046;1271;67954;-71
2022/03/30 04:22:07;;;;;;;14.00;4.00;;;;;;;0.17;91.33;98819.00;105066;1271;70343;-69
2022/03/30 04:24:58;;;;;;;13.70;3.70;;;;;;;0.03;91.23;98821.16;104941;1271;59852;-69
2022/03/30 04:27:51;;;;;;;9.90;3.30;;;;;;;-0.10;92.18;98825.48;105019;1271;60643;-69
2022/03/30 04:30:41;;;;;;;8.40;2.80;;;;;;;-0.24;92.06;98829.19;104914;1271;73348;-70
2022/03/30 04:33:34;;;;;;;7.40;2.60;;;;;;;-0.34;92.43;98834.27;104300;1271;1002815;-70
2022/03/30 04:36:24;;;;;;;6.40;2.10;;;;;;;-0.45;92.95;98834.81;105167;1271;72830;-69
2022/03/30 04:39:16;;;;;;;6.20;1.90;;;;;;;-0.60;93.04;98838.73;104179;1271;1003075;-71
2022/03/30 04:42:06;;;;;;;8.00;2.10;;;;;;;-0.82;93.36;98841.92;105107;1271;60803;-70
2022/03/30 04:44:54;;;;;;;8.20;2.40;;;;;;;-0.94;93.79;98850.54;105058;1271;73607;-71
2022/03/30 04:47:43;;;;;;;6.40;2.10;;;;;;;-1.04;93.97;98855.55;105446;1271;68350;-71
2022/03/30 04:50:35;;;;;;;8.70;2.20;;;;;;;-1.11;94.59;98862.85;105130;1271;72987;-71
2022/03/30 04:53:24;;;;;;;9.70;2.10;;;;;;;-1.12;94.96;98867.29;104355;1271;1003344;-70
2022/03/30 04:56:13;;;;;;;11.60;2.40;;;;;;;-1.16;94.96;98866.77;105230;1273;59776;-71
2022/03/30 04:59:01;;;;;;;9.20;2.30;;;;;;;-1.21;94.59;98871.20;104947;1273;73756;-71
2022/03/30 05:01:56;;;;;;;7.90;2.30;;;;;;;-1.24;94.66;98875.30;104738;1273;68828;-70
2022/03/30 05:04:45;;;;;;;10.80;2.70;;;;;;;-1.26;94.85;98873.88;105665;1273;72105;-72
2022/03/30 05:07:34;;;;;;;12.50;2.60;;;;;;;-1.28;95.44;98871.71;104274;1273;1003405;-71
2022/03/30 05:10:25;;;;;;;7.80;2.50;;;;;;;-1.30;95.55;98871.11;104954;1274;59577;-70
2022/03/30 05:13:19;;;;;;;10.70;2.50;;;;;;;-1.31;95.64;98875.48;105228;1273;73351;-70
2022/03/30 05:16:11;;;;;;;12.30;2.80;;;;;;;-1.29;95.92;98879.05;104792;1273;66961;-71
2022/03/30 05:19:02;;;;;;;10.80;2.60;;;;;;;-1.32;95.93;98884.06;105128;1273;73025;-71
2022/03/30 05:21:51;;;;;;;9.90;2.80;;;;;;;-1.33;95.81;98892.83;105131;1273;59714;-71
2022/03/30 05:24:43;;;;;;;9.80;2.80;;;;;;;-1.34;95.62;98898.96;104915;1273;60471;-70
2022/03/30 05:27:33;;;;;;;8.60;2.10;;;;;;;-1.34;95.75;98904.90;104878;1272;73049;-69
2022/03/30 05:30:27;;;;;;;6.70;2.00;;;;;;;-1.34;96.09;98909.42;105157;1273;66776;-70
2022/03/30 05:33:15;;;;;;;5.70;1.40;;;;;;;-1.36;96.58;98919.59;105070;1273;71489;-69
2022/03/30 05:36:07;;;;;;;4.50;1.20;;;;;;;-1.36;96.74;98922.02;104853;1273;59800;-70
2022/03/30 05:38:56;;;;;;;5.00;1.30;;;;;;;-1.40;96.74;98924.28;104942;1273;60744;-71
2022/03/30 05:41:45;;;;;;;6.30;1.40;;;;;;;-1.42;96.68;98933.61;105043;1273;72818;-72
2022/03/30 05:44:34;;;;;;;6.70;1.50;;;;;;;-1.43;96.67;98931.58;104951;1273;66642;-71
2022/03/30 05:47:28;;;;;;;7.50;1.50;;;;;;;-1.46;96.28;98937.09;105196;1273;73028;-71
2022/03/30 05:50:18;;;;;;;7.60;1.50;;;;;;;-1.46;95.99;98946.48;104978;1273;59696;-70
2022/03/30 05:53:07;;;;;;;5.10;1.20;;;;;;;-1.45;95.71;98949.59;105103;1273;59708;-70
2022/03/30 05:55:55;;;;;;;6.90;1.30;;;;;;;-1.46;95.76;98954.50;105309;1271;72287;-71
2022/03/30 05:58:43;;;;;;;4.90;1.40;;;;;;;-1.47;95.58;98958.20;104447;1271;1003872;-70
2022/03/30 06:01:32;;;;;;;7.40;1.40;;;;;;;-1.52;95.19;98965.38;105154;1271;71840;-70
2022/03/30 06:04:20;;;;;;;6.20;1.40;;;;;;;-1.56;95.19;98967.84;105121;1271;59767;-71
2022/03/30 06:07:10;;;;;;;8.80;1.80;;;;;;;-1.58;95.48;98975.75;105345;1271;60397;-71
2022/03/30 06:09:59;;;;;;;9.10;1.40;;;;;;;-1.59;95.73;98975.63;105175;1271;71989;-72
2022/03/30 06:12:51;;;;;;;7.10;1.50;;;;;;;-1.57;95.86;98981.60;105391;1271;66908;-70
2022/03/30 06:15:42;;;;;;;5.90;1.20;;;;;;;-1.55;96.13;98979.43;105198;1271;73323;-70
2022/03/30 06:18:33;;;;;;;4.90;1.30;;;;;;;-1.56;95.68;98980.71;105280;1271;59791;-71
2022/03/30 06:21:22;;;;;;;6.10;1.50;;;;;;;-1.56;95.16;98985.23;105123;1271;59965;-70
2022/03/30 06:24:11;;;;;;;4.30;1.10;;;;;;;-1.56;94.59;98990.60;105037;1271;72389;-70
2022/03/30 06:26:59;;;;;;;4.90;1.20;;;;;;;-1.58;94.00;98990.52;105182;1271;66756;-71
2022/03/30 06:29:47;;;;;;;5.50;1.50;;;;;;;-1.60;93.53;98990.10;105063;1271;71602;-71
2022/03/30 06:32:37;;;;;;;9.10;1.90;;;;;;;-1.61;93.01;98992.41;105143;1271;59958;-70
2022/03/30 06:35:31;;;;;;;6.60;1.50;;;;;;;-1.60;92.96;98993.57;105276;1271;61026;-71
2022/03/30 06:38:19;;;;;;;7.60;1.30;;;;;;;-1.57;93.04;98997.11;105025;1271;72025;-72
2022/03/30 06:41:09;;;;;;;8.30;1.50;;;;;;;-1.55;92.62;98991.97;105332;1271;68245;-70
2022/03/30 06:43:57;;;;;;;6.90;1.10;;;;;;;-1.51;92.65;98996.16;105012;1271;74168;-72
2022/03/30 06:46:46;;;;;;;6.80;1.50;;;;;;;-1.48;91.90;99005.05;104961;1271;59312;-71
2022/03/30 06:49:37;;;;;;;5.20;1.30;;;;;;;-1.45;91.20;99012.61;105044;1271;60149;-71
2022/03/30 06:52:26;;;;;;;5.20;1.40;;;;;;;-1.42;91.27;99015.75;105052;1271;73799;-72
2022/03/30 06:55:16;;;;;;;6.10;1.50;;;;;;;-1.38;91.23;99023.55;105369;1271;67337;-70
2022/03/30 06:58:09;;;;;;;8.10;2.00;;;;;;;-1.37;90.93;99019.86;105358;1271;74674;-71
2022/03/30 07:01:00;;;;;;;7.50;1.80;;;;;;;-1.35;90.51;99030.21;105102;1271;59669;-71
2022/03/30 07:03:50;;;;;;;7.10;1.50;;;;;;;-1.32;90.46;99033.06;105020;1271;59686;-72
2022/03/30 07:10:15;;;;;;;6.60;1.40;;;;;;;-1.32;90.46;99034.65;105297;1271;73730;-72
2022/03/30 07:12:58;;;;;;;5.60;1.70;;;;;;;-1.30;90.66;99048.77;105477;1271;72666;-70
2022/03/30 07:15:46;;;;;;;5.90;1.60;;;;;;;-1.30;90.62;99053.67;105527;1271;60256;-71
2022/03/30 07:18:37;;;;;;;5.70;1.60;;;;;;;-1.32;90.54;99055.66;104978;1271;59634;-71
2022/03/30 07:21:26;;;;;;;6.50;1.40;;;;;;;-1.31;90.85;99055.27;105063;1271;74013;-70
2022/03/30 07:24:14;;;;;;;4.80;1.20;;;;;;;-1.30;90.47;99060.27;105243;1271;66639;-70
2022/03/30 07:27:03;;;;;;;6.90;1.40;;;;;;;-1.25;90.43;99064.77;105010;1271;73098;-71
2022/03/30 07:29:52;;;;;;;6.60;1.60;;;;;;;-1.22;90.70;99065.45;105304;1271;59667;-70
2022/03/30 07:32:44;;;;;;;11.00;1.60;;;;;;;-1.17;90.02;99075.91;105294;1270;60736;-70
2022/03/30 07:35:32;;;;;;;6.20;1.30;;;;;;;-1.17;89.23;99075.56;105173;1271;73461;-73
2022/03/30 07:38:24;;;;;;;5.80;1.80;;;;;;;-1.19;88.00;99082.23;105161;1271;67927;-70
2022/03/30 07:41:12;;;;;;;16.90;6.30;;;;;;;-1.10;89.77;99086.38;105563;1271;71802;-71
2022/03/30 07:44:01;;;;;;;8.80;2.00;;;;;;;-1.03;88.33;99083.21;105277;1273;59655;-72
2022/03/30 07:46:49;;;;;;;6.40;1.70;;;;;;;-1.05;87.58;99087.86;105073;1271;59599;-71
2022/03/30 07:49:38;;;;;;;5.20;1.50;;;;;;;-1.03;87.93;99093.52;105226;1271;71700;-71
2022/03/30 07:52:27;;;;;;;6.30;1.40;;;;;;;-1.00;87.38;99093.41;105088;1271;66739;-72
2022/03/30 07:55:15;;;;;;;6.00;1.40;;;;;;;-1.02;87.30;99094.69;105053;1272;71415;-71
2022/03/30 07:58:03;;;;;;;7.30;1.60;;;;;;;-1.01;86.96;99100.06;105252;1271;59803;-71
2022/03/30 08:00:53;;;;;;;6.60;1.90;;;;;;;-0.95;87.05;99102.59;105109;1271;59564;-71
2022/03/30 08:03:42;;;;;;;7.10;1.80;;;;;;;-0.86;86.33;99106.88;105037;1271;73330;-72
2022/03/30 08:06:31;;;;;;;7.80;2.00;;;;;;;-0.79;85.41;99110.73;105298;1271;68882;-71
2022/03/30 08:09:19;;;;;;;7.30;1.70;;;;;;;-0.73;84.31;99114.44;105417;1271;71503;-72
2022/03/30 08:12:14;;;;;;;6.40;1.60;;;;;;;-0.65;83.41;99109.38;105020;1271;59769;-71
2022/03/30 08:15:04;;;;;;;6.70;1.80;;;;;;;-0.63;82.38;99114.36;105010;1271;59662;-71
2022/03/30 08:17:54;;;;;;;6.20;1.70;;;;;;;-0.62;81.84;99120.23;105331;1271;73321;-71
2022/03/30 08:23:55;;;;;;;6.60;1.70;;;;;;;-0.62;82.63;99125.09;105126;1271;71673;-71
2022/03/30 08:26:43;;;;;;;7.10;1.70;;;;;;;-0.58;82.59;99130.98;104947;1271;59689;-70
2022/03/30 08:29:32;;;;;;;8.00;2.00;;;;;;;-0.54;83.18;99136.05;104273;1271;1003278;-71
2022/03/30 08:32:22;;;;;;;16.00;6.60;;;;;;;-0.47;83.32;99136.44;105132;1271;73630;-71
2022/03/30 08:35:12;;;;;;;5.90;2.00;;;;;;;-0.43;83.06;99135.54;104436;1271;1003974;-72
2022/03/30 08:38:01;;;;;;;6.60;1.80;;;;;;;-0.42;82.85;99140.52;105338;1271;73025;-72
2022/03/30 08:40:51;;;;;;;5.70;1.70;;;;;;;-0.38;83.31;99142.29;105009;1271;59868;-71
2022/03/30 08:43:40;;;;;;;5.70;1.60;;;;;;;-0.38;83.44;99146.14;105002;1271;60819;-71
2022/03/30 08:46:29;;;;;;;8.50;1.80;;;;;;;-0.38;83.53;99144.34;105092;1271;72871;-72
2022/03/30 08:49:18;;;;;;;5.50;1.40;;;;;;;-0.38;83.50;99144.53;105291;1271;66082;-72
2022/03/30 08:52:09;;;;;;;5.20;1.50;;;;;;;-0.39;82.93;99146.48;105060;1271;73249;-71
2022/03/30 08:54:59;;;;;;;6.30;1.30;;;;;;;-0.32;83.64;99151.23;105118;1271;59895;-71
2022/03/30 08:57:47;;;;;;;6.40;1.50;;;;;;;-0.29;83.32;99158.42;105001;1271;60377;-72
2022/03/30 09:00:35;;;;;;;5.20;1.60;;;;;;;-0.30;83.32;99160.73;105143;1271;74072;-71
2022/03/30 09:03:24;;;;;;;5.50;1.50;;;;;;;-0.27;83.55;99162.66;105048;1271;68115;-71
2022/03/30 09:06:13;;;;;;;4.90;1.30;;;;;;;-0.25;83.47;99163.09;105019;1271;74180;-71
2022/03/30 09:09:03;;;;;;;5.40;1.40;;;;;;;-0.25;83.72;99162.44;104932;1271;59614;-71
2022/03/30 09:11:55;;;;;;;5.00;1.40;;;;;;;-0.19;84.50;99159.87;105028;1271;59582;-71
2022/03/30 09:14:43;;;;;;;5.70;1.60;;;;;;;0.10;84.73;99161.61;104658;1271;1003066;-71
2022/03/30 09:17:40;;;;;;;6.60;1.70;;;;;;;0.39;83.39;99161.91;105023;1271;66650;-70
2022/03/30 09:20:28;;;;;;;6.20;1.70;;;;;;;0.70;82.45;99160.72;105055;1271;73161;-71
2022/03/30 09:23:17;;;;;;;8.10;2.30;;;;;;;1.01;81.32;99161.73;104964;1271;59753;-71
2022/03/30 09:26:06;;;;;;;7.90;2.10;;;;;;;1.28;79.57;99161.87;105197;1271;60932;-72
2022/03/30 09:28:54;;;;;;;6.40;1.80;;;;;;;1.57;77.28;99159.80;104288;1271;1003381;-72
2022/03/30 09:31:43;;;;;;;6.90;1.60;;;;;;;1.80;75.78;99157.79;105206;1271;68028;-73
2022/03/30 09:34:53;;;;;;;6.00;1.70;;;;;;;2.06;74.31;99162.33;105047;1271;71477;-73
2022/03/30 09:37:42;;;;;;;7.10;1.70;;;;;;;2.38;72.07;99165.19;105251;1271;59691;-70
2022/03/30 09:41:01;;;;;;;6.30;1.80;;;;;;;3.01;70.34;99163.71;105394;1273;60802;-71
2022/03/30 09:44:02;;;;;;;5.80;1.80;;;;;;;4.33;65.04;99157.38;105103;1277;71976;-71
2022/03/30 09:47:20;;;;;;;7.00;2.00;;;;;;;5.64;62.23;99154.35;104956;1278;68323;-72
2022/03/30 09:50:10;;;;;;;5.50;1.60;;;;;;;6.93;56.02;99152.60;105121;1278;72346;-71
2022/03/30 09:53:14;;;;;;;6.40;1.70;;;;;;;8.34;51.20;99144.92;104952;1277;59869;-72
2022/03/30 09:56:13;;;;;;;6.00;1.60;;;;;;;9.45;47.95;99141.01;105417;1277;59693;-71
2022/03/30 09:59:05;;;;;;;6.10;1.70;;;;;;;9.57;45.69;99146.16;105414;1278;73583;-71
2022/03/30 10:01:53;;;;;;;6.10;1.90;;;;;;;9.81;43.36;99146.70;105270;1277;66820;-72
2022/03/30 10:04:42;;;;;;;4.80;1.20;;;;;;;9.87;42.58;99144.09;105252;1277;71923;-72
2022/03/30 10:07:31;;;;;;;4.70;1.10;;;;;;;10.08;42.72;99143.77;105213;1277;59418;-71
2022/03/30 10:10:20;;;;;;;4.40;1.00;;;;;;;10.19;41.73;99143.86;105117;1277;59806;-71
2022/03/30 10:13:09;;;;;;;4.30;1.00;;;;;;;10.88;39.68;99139.69;105107;1277;73158;-71
2022/03/30 10:15:59;;;;;;;4.50;1.10;;;;;;;11.17;38.52;99137.34;104826;1278;65756;-73
2022/03/30 10:18:51;;;;;;;7.80;1.50;;;;;;;11.27;38.54;99143.52;105079;1278;72083;-71
2022/03/30 10:22:09;;;;;;;5.10;1.10;;;;;;;11.33;37.97;99147.14;105136;1272;59881;-72
2022/03/30 10:25:19;;;;;;;5.60;1.20;;;;;;;11.24;38.03;99148.42;105286;1271;59654;-71
2022/03/30 10:28:45;;;;;;;5.90;1.10;;;;;;;11.17;37.68;99147.30;105361;1271;73024;-72
2022/03/30 10:31:36;;;;;;;5.70;1.20;;;;;;;12.87;36.01;99137.09;105193;1271;68136;-72
2022/03/30 10:34:26;;;;;;;4.20;1.10;;;;;;;13.63;33.56;99127.18;105183;1271;73363;-71
2022/03/30 10:37:24;;;;;;;5.00;1.50;;;;;;;13.43;32.62;99129.59;105472;1271;59704;-72
2022/03/30 10:40:24;;;;;;;4.70;1.10;;;;;;;12.91;33.48;99136.30;105208;1271;59745;-72
2022/03/30 10:43:24;;;;;;;5.90;1.20;;;;;;;13.56;33.76;99127.77;105608;1271;72301;-73
2022/03/30 10:46:37;;;;;;;4.60;1.10;;;;;;;13.27;32.91;99127.86;105570;1271;67837;-73
2022/03/30 10:49:57;;;;;;;5.20;1.30;;;;;;;13.28;33.42;99130.25;105709;1271;72923;-72
2022/03/30 10:52:48;;;;;;;5.50;1.20;;;;;;;13.15;33.25;99131.06;105733;1271;59695;-72
2022/03/30 10:55:38;;;;;;;5.20;1.30;;;;;;;12.16;33.30;99131.73;105505;1271;59992;-72
2022/03/30 10:58:29;;;;;;;5.10;1.20;;;;;;;12.33;33.36;99131.38;105617;1271;73372;-72
2022/03/30 11:01:25;;;;;;;5.70;1.10;;;;;;;13.08;33.60;99132.66;105415;1271;68250;-72
2022/03/30 11:04:19;;;;;;;4.50;1.10;;;;;;;13.54;32.51;99134.54;105406;1271;72749;-72
2022/03/30 11:07:14;;;;;;;5.10;0.80;;;;;;;14.43;30.63;99131.70;105413;1271;59592;-72
2022/03/30 11:10:21;;;;;;;4.00;0.80;;;;;;;14.43;30.06;99133.27;105405;1271;59567;-72
2022/03/30 11:13:22;;;;;;;4.30;0.90;;;;;;;14.09;30.51;99131.73;105628;1271;72086;-71
2022/03/30 11:16:11;;;;;;;5.40;1.60;;;;;;;14.43;29.23;99133.43;105392;1271;66092;-73
2022/03/30 11:19:02;;;;;;;10.20;2.50;;;;;;;14.84;29.25;99133.47;105365;1271;73013;-73
2022/03/30 11:22:11;;;;;;;4.80;1.20;;;;;;;14.01;29.09;99130.04;105389;1271;59663;-71
2022/03/30 11:25:08;;;;;;;6.30;1.30;;;;;;;14.26;28.99;99134.56;105368;1270;59775;-72
2022/03/30 11:28:01;;;;;;;5.00;1.10;;;;;;;13.22;30.00;99136.95;105572;1271;74548;-72
2022/03/30 11:30:52;;;;;;;4.80;1.20;;;;;;;12.59;30.61;99143.11;105349;1271;66570;-72
2022/03/30 11:33:42;;;;;;;6.50;1.10;;;;;;;11.80;31.88;99142.55;105253;1271;72950;-71
2022/03/30 11:36:31;;;;;;;5.70;0.90;;;;;;;11.50;32.87;99147.19;105143;1271;59705;-71
2022/03/30 11:39:32;;;;;;;5.70;1.40;;;;;;;11.24;32.68;99154.41;105114;1271;59650;-71
2022/03/30 11:42:23;;;;;;;5.20;1.30;;;;;;;11.05;33.12;99150.71;105214;1271;71699;-71
2022/03/30 11:45:21;;;;;;;4.00;1.00;;;;;;;10.12;33.44;99149.29;105121;1271;67807;-72
2022/03/30 11:48:16;;;;;;;5.30;1.10;;;;;;;9.02;35.41;99148.98;105454;1271;72741;-71
2022/03/30 11:51:05;;;;;;;5.50;1.50;;;;;;;8.45;37.45;99155.72;105278;1271;59839;-71
2022/03/30 11:54:18;;;;;;;5.60;1.30;;;;;;;8.72;37.77;99156.80;105234;1272;60250;-72
2022/03/30 11:57:09;;;;;;;5.80;1.40;;;;;;;8.92;37.40;99157.66;105279;1272;73355;-72
2022/03/30 12:00:00;;;;;;;5.20;1.10;;;;;;;9.07;37.40;99155.11;105086;1273;66822;-72
2022/03/30 12:03:01;;;;;;;5.10;1.20;;;;;;;8.64;37.46;99153.62;105111;1271;72626;-70
2022/03/30 12:05:57;;;;;;;5.00;1.20;;;;;;;8.31;37.73;99156.48;105148;1273;59964;-71
2022/03/30 12:08:48;;;;;;;5.20;1.10;;;;;;;8.44;37.30;99154.73;105140;1271;59764;-71
2022/03/30 12:11:36;;;;;;;5.90;1.10;;;;;;;8.96;37.03;99156.80;105170;1271;73090;-70
2022/03/30 12:14:30;;;;;;;5.30;1.10;;;;;;;9.06;36.95;99154.80;105257;1271;66158;-70
2022/03/30 12:17:28;;;;;;;5.00;1.00;;;;;;;9.32;36.82;99152.81;105252;1271;73011;-71
2022/03/30 12:20:25;;;;;;;5.20;1.10;;;;;;;9.30;36.53;99152.05;104988;1271;59679;-69
2022/03/30 12:23:15;;;;;;;5.50;1.30;;;;;;;8.90;37.10;99155.29;105352;1271;59861;-70
2022/03/30 12:26:14;;;;;;;5.10;1.20;;;;;;;8.32;38.20;99158.88;105345;1271;71957;-70
2022/03/30 12:29:14;;;;;;;5.90;1.40;;;;;;;7.95;38.97;99159.63;105623;1273;67777;-70
2022/03/30 12:32:05;;;;;;;5.30;1.50;;;;;;;7.71;39.09;99162.23;105377;1271;71541;-70
2022/03/30 12:35:12;;;;;;;4.70;1.10;;;;;;;7.38;39.56;99158.31;105212;1271;59653;-70
2022/03/30 12:38:14;;;;;;;5.20;1.20;;;;;;;7.08;40.46;99160.77;105335;1271;59617;-69
2022/03/30 12:41:02;;;;;;;6.70;1.30;;;;;;;6.89;40.94;99164.59;105152;1271;73691;-71
2022/03/30 12:44:02;;;;;;;4.80;1.00;;;;;;;6.70;41.31;99164.23;104929;1273;66491;-70
2022/03/30 12:46:52;;;;;;;5.80;1.50;;;;;;;6.21;41.84;99169.62;105191;1271;75043;-70
2022/03/30 12:49:42;;;;;;;5.30;1.40;;;;;;;5.75;42.50;99166.73;105160;1271;59948;-69
2022/03/30 12:52:40;;;;;;;6.20;1.50;;;;;;;5.50;43.21;99172.95;105240;1271;60677;-69
2022/03/30 12:55:34;;;;;;;6.00;1.70;;;;;;;5.15;43.97;99171.69;105246;1270;73883;-69
2022/03/30 12:58:25;;;;;;;5.40;1.30;;;;;;;4.93;44.36;99174.09;105190;1271;67073;-69
2022/03/30 13:01:37;;;;;;;6.20;1.40;;;;;;;4.78;44.72;99177.36;105187;1271;73160;-70
2022/03/30 13:04:30;;;;;;;6.70;1.90;;;;;;;4.82;44.74;99176.77;105263;1271;59999;-69
2022/03/30 13:07:22;;;;;;;5.70;1.30;;;;;;;4.84;45.35;99174.48;105193;1271;59664;-69
2022/03/30 13:10:11;;;;;;;6.10;1.40;;;;;;;4.85;44.91;99176.39;105017;1273;71704;-70
2022/03/30 13:13:05;;;;;;;5.90;1.50;;;;;;;4.68;45.21;99171.92;105041;1271;68086;-71
2022/03/30 13:16:17;;;;;;;5.80;1.50;;;;;;;4.43;45.76;99175.99;105271;1272;71812;-69
2022/03/30 13:19:11;;;;;;;6.20;1.40;;;;;;;4.33;46.48;99175.80;105424;1273;59797;-70
2022/03/30 13:22:00;;;;;;;5.20;1.20;;;;;;;4.18;46.80;99172.58;105271;1271;60441;-71
2022/03/30 13:24:51;;;;;;;6.10;1.30;;;;;;;4.02;46.63;99174.32;104475;1271;1003431;-70
2022/03/30 13:27:41;;;;;;;5.40;1.50;;;;;;;4.02;46.59;99177.65;104339;1273;1003672;-70
2022/03/30 13:30:30;;;;;;;5.20;1.30;;;;;;;4.02;47.72;99171.63;105098;1271;72924;-71